sensor_id;sensor_type;location;lat;lon;timestamp;pressure;altitude;pressure_sealevel;temperature;humidity
45731;BME280;31440;48.584;13.460;2023-02-27T00:02:24;97167.25;;;-1.97;100.00
45731;BME280;31440;48.584;13.460;2023-02-27T00:05:28;97161.81;;;-1.61;100.00
45731;BME280;31440;48.584;13.460;2023-02-27T00:08:33;97160.56;;;-1.91;100.00
45731;BME280;31440;48.584;13.460;2023-02-27T00:11:37;97162.31;;;-1.88;100.00
45731;BME280;31440;48.584;13.460;2023-02-27T00:14:42;97171.28;;;-1.54;100.00
45731;BME280;31440;48.584;13.460;2023-02-27T00:17:46;97164.94;;;-1.84;100.00
45731;BME280;31440;48.584;13.460;2023-02-27T00:20:53;97129.06;;;-1.94;100.00
45731;BME280;31440;48.584;13.460;2023-02-27T00:23:57;97181.19;;;-1.76;100.00
45731;BME280;31440;48.584;13.460;2023-02-27T00:27:02;97161.06;;;-2.13;100.00
45731;BME280;31440;48.584;13.460;2023-02-27T00:30:10;97184.41;;;-1.87;100.00
45731;BME280;31440;48.584;13.460;2023-02-27T00:33:15;97192.13;;;-1.83;100.00
45731;BME280;31440;48.584;13.460;2023-02-27T00:36:20;97184.34;;;-1.90;100.00
45731;BME280;31440;48.584;13.460;2023-02-27T00:39:24;97190.09;;;-2.05;100.00
45731;BME280;31440;48.584;13.460;2023-02-27T00:45:35;97193.75;;;-2.41;100.00
45731;BME280;31440;48.584;13.460;2023-02-27T00:48:40;97201.75;;;-2.19;100.00
45731;BME280;31440;48.584;13.460;2023-02-27T00:51:45;97198.38;;;-2.18;100.00
45731;BME280;31440;48.584;13.460;2023-02-27T00:54:50;97198.00;;;-1.88;100.00
45731;BME280;31440;48.584;13.460;2023-02-27T00:57:54;97198.06;;;-1.84;100.00
45731;BME280;31440;48.584;13.460;2023-02-27T01:00:59;97201.47;;;-2.36;100.00
45731;BME280;31440;48.584;13.460;2023-02-27T01:04:05;97185.13;;;-1.96;100.00
45731;BME280;31440;48.584;13.460;2023-02-27T01:07:09;97190.97;;;-2.03;100.00
45731;BME280;31440;48.584;13.460;2023-02-27T01:10:16;97169.66;;;-2.08;100.00
45731;BME280;31440;48.584;13.460;2023-02-27T01:13:21;97197.03;;;-1.95;100.00
45731;BME280;31440;48.584;13.460;2023-02-27T01:16:25;97203.50;;;-2.15;100.00
45731;BME280;31440;48.584;13.460;2023-02-27T01:19:30;97200.38;;;-1.97;100.00
45731;BME280;31440;48.584;13.460;2023-02-27T01:22:35;97205.16;;;-2.17;100.00
45731;BME280;31440;48.584;13.460;2023-02-27T01:25:39;97199.50;;;-2.01;100.00
45731;BME280;31440;48.584;13.460;2023-02-27T01:28:44;97211.34;;;-2.03;100.00
45731;BME280;31440;48.584;13.460;2023-02-27T01:31:49;97210.53;;;-1.99;100.00
45731;BME280;31440;48.584;13.460;2023-02-27T01:34:54;97210.31;;;-2.14;100.00
45731;BME280;31440;48.584;13.460;2023-02-27T01:37:58;97213.25;;;-1.90;100.00
45731;BME280;31440;48.584;13.460;2023-02-27T01:41:03;97218.84;;;-2.11;100.00
45731;BME280;31440;48.584;13.460;2023-02-27T01:44:12;97226.06;;;-2.37;100.00
45731;BME280;31440;48.584;13.460;2023-02-27T01:47:16;97223.66;;;-2.29;100.00
45731;BME280;31440;48.584;13.460;2023-02-27T01:50:21;97226.06;;;-2.37;100.00
45731;BME280;31440;48.584;13.460;2023-02-27T01:53:29;97223.97;;;-2.09;100.00
45731;BME280;31440;48.584;13.460;2023-02-27T01:56:35;97228.09;;;-2.16;100.00
45731;BME280;31440;48.584;13.460;2023-02-27T01:59:40;97217.94;;;-2.14;100.00
45731;BME280;31440;48.584;13.460;2023-02-27T02:06:08;97221.31;;;-2.15;100.00
45731;BME280;31440;48.584;13.460;2023-02-27T02:09:15;97228.69;;;-2.32;100.00
45731;BME280;31440;48.584;13.460;2023-02-27T02:12:24;97218.91;;;-2.08;100.00
45731;BME280;31440;48.584;13.460;2023-02-27T02:15:34;97222.00;;;-1.73;100.00
45731;BME280;31440;48.584;13.460;2023-02-27T02:18:50;97224.91;;;-2.06;100.00
45731;BME280;31440;48.584;13.460;2023-02-27T02:39:59;97216.38;;;-2.08;100.00
45731;BME280;31440;48.584;13.460;2023-02-27T02:43:23;97217.97;;;-2.13;100.00
45731;BME280;31440;48.584;13.460;2023-02-27T02:46:46;97218.09;;;-2.07;100.00
45731;BME280;31440;48.584;13.460;2023-02-27T02:53:26;97206.94;;;-2.12;100.00
45731;BME280;31440;48.584;13.460;2023-02-27T03:03:19;97228.47;;;-1.94;100.00
45731;BME280;31440;48.584;13.460;2023-02-27T03:06:35;97224.59;;;-2.24;100.00
45731;BME280;31440;48.584;13.460;2023-02-27T03:09:54;97225.63;;;-2.13;100.00
45731;BME280;31440;48.584;13.460;2023-02-27T03:16:52;97218.66;;;-2.23;100.00
45731;BME280;31440;48.584;13.460;2023-02-27T03:20:03;97223.28;;;-2.49;100.00
45731;BME280;31440;48.584;13.460;2023-02-27T03:23:12;97220.09;;;-2.39;100.00
45731;BME280;31440;48.584;13.460;2023-02-27T03:26:23;97226.19;;;-2.29;100.00
45731;BME280;31440;48.584;13.460;2023-02-27T03:33:07;97234.19;;;-2.57;100.00
45731;BME280;31440;48.584;13.460;2023-02-27T03:36:32;97236.69;;;-2.59;100.00
45731;BME280;31440;48.584;13.460;2023-02-27T03:39:49;97237.72;;;-2.49;100.00
45731;BME280;31440;48.584;13.460;2023-02-27T03:43:17;97240.44;;;-2.40;100.00
45731;BME280;31440;48.584;13.460;2023-02-27T03:46:26;97239.09;;;-2.20;100.00
45731;BME280;31440;48.584;13.460;2023-02-27T03:49:31;97237.63;;;-2.55;100.00
45731;BME280;31440;48.584;13.460;2023-02-27T03:52:38;97232.50;;;-2.57;100.00
45731;BME280;31440;48.584;13.460;2023-02-27T03:55:44;97235.72;;;-2.19;100.00
45731;BME280;31440;48.584;13.460;2023-02-27T03:58:50;97246.44;;;-2.35;100.00
45731;BME280;31440;48.584;13.460;2023-02-27T04:01:57;97246.75;;;-2.65;100.00
45731;BME280;31440;48.584;13.460;2023-02-27T04:05:02;97256.47;;;-2.44;100.00
45731;BME280;31440;48.584;13.460;2023-02-27T04:18:46;97264.97;;;-2.44;100.00
45731;BME280;31440;48.584;13.460;2023-02-27T04:25:36;97264.66;;;-2.14;100.00
45731;BME280;31440;48.584;13.460;2023-02-27T04:29:03;97265.81;;;-1.96;100.00
45731;BME280;31440;48.584;13.460;2023-02-27T04:35:30;97259.34;;;-2.27;100.00
45731;BME280;31440;48.584;13.460;2023-02-27T04:38:45;97274.00;;;-2.14;100.00
45731;BME280;31440;48.584;13.460;2023-02-27T04:41:58;97266.16;;;-2.26;100.00
45731;BME280;31440;48.584;13.460;2023-02-27T04:45:05;97267.69;;;-2.35;100.00
45731;BME280;31440;48.584;13.460;2023-02-27T04:48:18;97266.09;;;-2.29;100.00
45731;BME280;31440;48.584;13.460;2023-02-27T04:51:28;97269.16;;;-2.47;100.00
45731;BME280;31440;48.584;13.460;2023-02-27T04:57:47;97273.16;;;-2.13;100.00
45731;BME280;31440;48.584;13.460;2023-02-27T05:01:00;97264.59;;;-2.18;100.00
45731;BME280;31440;48.584;13.460;2023-02-27T05:04:10;97253.66;;;-2.11;100.00
45731;BME280;31440;48.584;13.460;2023-02-27T05:07:19;97254.53;;;-2.11;100.00
45731;BME280;31440;48.584;13.460;2023-02-27T05:10:35;97257.72;;;-2.24;100.00
45731;BME280;31440;48.584;13.460;2023-02-27T05:17:14;97257.31;;;-1.97;100.00
45731;BME280;31440;48.584;13.460;2023-02-27T05:24:07;97275.59;;;-2.21;100.00
45731;BME280;31440;48.584;13.460;2023-02-27T05:27:30;97280.41;;;-2.36;100.00
45731;BME280;31440;48.584;13.460;2023-02-27T05:31:04;97272.63;;;-2.44;100.00
45731;BME280;31440;48.584;13.460;2023-02-27T05:34:17;97278.72;;;-2.34;100.00
45731;BME280;31440;48.584;13.460;2023-02-27T05:37:31;97264.94;;;-2.47;100.00
45731;BME280;31440;48.584;13.460;2023-02-27T05:43:46;97269.06;;;-2.52;100.00
45731;BME280;31440;48.584;13.460;2023-02-27T05:46:59;97271.91;;;-2.80;100.00
45731;BME280;31440;48.584;13.460;2023-02-27T05:50:16;97269.19;;;-2.46;100.00
45731;BME280;31440;48.584;13.460;2023-02-27T05:53:26;97275.03;;;-2.50;100.00
45731;BME280;31440;48.584;13.460;2023-02-27T05:56:32;97278.81;;;-2.75;100.00
45731;BME280;31440;48.584;13.460;2023-02-27T05:59:45;97284.44;;;-2.89;100.00
45731;BME280;31440;48.584;13.460;2023-02-27T06:02:51;97282.91;;;-3.22;100.00
45731;BME280;31440;48.584;13.460;2023-02-27T06:05:58;97285.94;;;-2.99;100.00
45731;BME280;31440;48.584;13.460;2023-02-27T06:09:03;97284.91;;;-3.09;100.00
45731;BME280;31440;48.584;13.460;2023-02-27T06:12:07;97289.00;;;-3.15;100.00
45731;BME280;31440;48.584;13.460;2023-02-27T06:15:12;97292.06;;;-2.89;100.00
45731;BME280;31440;48.584;13.460;2023-02-27T06:18:17;97302.19;;;-3.31;100.00
45731;BME280;31440;48.584;13.460;2023-02-27T06:21:22;97297.63;;;-2.66;100.00
45731;BME280;31440;48.584;13.460;2023-02-27T06:24:26;97310.88;;;-3.22;100.00
45731;BME280;31440;48.584;13.460;2023-02-27T06:27:32;97306.81;;;-3.15;100.00
45731;BME280;31440;48.584;13.460;2023-02-27T06:30:37;97302.28;;;-3.28;100.00
45731;BME280;31440;48.584;13.460;2023-02-27T06:33:42;97323.31;;;-2.96;100.00
45731;BME280;31440;48.584;13.460;2023-02-27T06:36:46;97322.69;;;-2.86;98.32
45731;BME280;31440;48.584;13.460;2023-02-27T06:39:53;97279.28;;;-3.33;100.00
45731;BME280;31440;48.584;13.460;2023-02-27T06:42:57;97328.38;;;-2.98;97.06
45731;BME280;31440;48.584;13.460;2023-02-27T06:46:02;97332.72;;;-2.94;96.21
45731;BME280;31440;48.584;13.460;2023-02-27T06:49:07;97334.78;;;-2.76;94.94
45731;BME280;31440;48.584;13.460;2023-02-27T06:52:11;97337.41;;;-2.73;95.59
45731;BME280;31440;48.584;13.460;2023-02-27T06:55:16;97350.38;;;-2.61;96.56
45731;BME280;31440;48.584;13.460;2023-02-27T06:58:27;97296.69;;;-2.72;95.11
45731;BME280;31440;48.584;13.460;2023-02-27T07:01:31;97354.22;;;-2.39;92.58
45731;BME280;31440;48.584;13.460;2023-02-27T07:04:36;97343.59;;;-2.17;99.22
45731;BME280;31440;48.584;13.460;2023-02-27T07:07:41;97355.31;;;-2.26;91.76
45731;BME280;31440;48.584;13.460;2023-02-27T07:10:45;97349.47;;;-2.21;92.33
45731;BME280;31440;48.584;13.460;2023-02-27T07:13:52;97352.53;;;-2.39;92.42
45731;BME280;31440;48.584;13.460;2023-02-27T07:16:58;97343.91;;;-2.45;96.92
45731;BME280;31440;48.584;13.460;2023-02-27T07:20:08;97362.47;;;-2.49;94.84
45731;BME280;31440;48.584;13.460;2023-02-27T07:23:14;97356.13;;;-2.27;93.37
45731;BME280;31440;48.584;13.460;2023-02-27T07:26:18;97362.78;;;-2.34;92.97
45731;BME280;31440;48.584;13.460;2023-02-27T07:29:23;97354.72;;;-2.57;91.26
45731;BME280;31440;48.584;13.460;2023-02-27T07:35:33;97355.59;;;-2.11;90.17
45731;BME280;31440;48.584;13.460;2023-02-27T07:38:38;97360.94;;;-2.43;91.28
45731;BME280;31440;48.584;13.460;2023-02-27T07:41:43;97369.97;;;-2.57;87.21
45731;BME280;31440;48.584;13.460;2023-02-27T07:44:53;97377.44;;;-2.64;88.05
45731;BME280;31440;48.584;13.460;2023-02-27T07:47:57;97376.44;;;-2.30;84.88
45731;BME280;31440;48.584;13.460;2023-02-27T07:51:02;97372.44;;;-2.19;84.65
45731;BME280;31440;48.584;13.460;2023-02-27T07:54:06;97374.81;;;-1.83;78.45
45731;BME280;31440;48.584;13.460;2023-02-27T07:57:11;97372.56;;;-2.55;79.46
45731;BME280;31440;48.584;13.460;2023-02-27T08:00:17;97353.59;;;-2.68;80.98
45731;BME280;31440;48.584;13.460;2023-02-27T08:03:22;97382.72;;;-2.13;82.17
45731;BME280;31440;48.584;13.460;2023-02-27T08:06:27;97378.66;;;-2.47;79.34
45731;BME280;31440;48.584;13.460;2023-02-27T08:09:32;97387.09;;;-2.08;78.20
45731;BME280;31440;48.584;13.460;2023-02-27T08:12:36;97387.19;;;-2.03;74.57
45731;BME280;31440;48.584;13.460;2023-02-27T08:15:41;97360.97;;;-1.96;74.40
45731;BME280;31440;48.584;13.460;2023-02-27T08:18:46;97374.69;;;-1.89;75.93
45731;BME280;31440;48.584;13.460;2023-02-27T08:21:51;97382.16;;;-2.00;74.79
45731;BME280;31440;48.584;13.460;2023-02-27T08:24:55;97380.09;;;-2.18;77.23
45731;BME280;31440;48.584;13.460;2023-02-27T08:28:00;97377.03;;;-2.02;73.45
45731;BME280;31440;48.584;13.460;2023-02-27T08:31:06;97336.81;;;-2.16;79.68
45731;BME280;31440;48.584;13.460;2023-02-27T08:34:11;97396.06;;;-1.83;72.13
45731;BME280;31440;48.584;13.460;2023-02-27T08:37:16;97383.84;;;-1.99;71.95
45731;BME280;31440;48.584;13.460;2023-02-27T08:40:21;97401.63;;;-2.04;72.53
45731;BME280;31440;48.584;13.460;2023-02-27T08:43:25;97408.63;;;-1.92;77.71
45731;BME280;31440;48.584;13.460;2023-02-27T08:49:35;97406.38;;;-2.20;71.06
45731;BME280;31440;48.584;13.460;2023-02-27T08:52:40;97414.09;;;-2.16;74.71
45731;BME280;31440;48.584;13.460;2023-02-27T08:55:48;97423.16;;;-1.88;71.83
45731;BME280;31440;48.584;13.460;2023-02-27T08:58:54;97409.63;;;-1.84;75.04
45731;BME280;31440;48.584;13.460;2023-02-27T09:01:58;97415.44;;;-1.91;71.01
45731;BME280;31440;48.584;13.460;2023-02-27T09:05:03;97424.94;;;-1.84;75.93
45731;BME280;31440;48.584;13.460;2023-02-27T09:08:08;97422.88;;;-2.03;74.14
45731;BME280;31440;48.584;13.460;2023-02-27T09:14:18;97437.78;;;-1.78;68.38
45731;BME280;31440;48.584;13.460;2023-02-27T09:17:23;97438.50;;;-1.85;70.35
45731;BME280;31440;48.584;13.460;2023-02-27T09:20:29;97446.78;;;-1.51;68.31
45731;BME280;31440;48.584;13.460;2023-02-27T09:26:40;97436.72;;;-1.89;70.22
45731;BME280;31440;48.584;13.460;2023-02-27T09:29:49;97444.41;;;-1.41;69.47
45731;BME280;31440;48.584;13.460;2023-02-27T09:32:59;97443.44;;;-1.47;71.47
45731;BME280;31440;48.584;13.460;2023-02-27T09:36:05;97453.00;;;-1.82;70.52
45731;BME280;31440;48.584;13.460;2023-02-27T09:39:10;97443.66;;;-1.35;70.96
45731;BME280;31440;48.584;13.460;2023-02-27T09:42:20;97451.50;;;-1.23;71.07
45731;BME280;31440;48.584;13.460;2023-02-27T09:45:27;97452.31;;;-1.25;75.03
45731;BME280;31440;48.584;13.460;2023-02-27T09:48:52;97454.16;;;-1.67;78.96
45731;BME280;31440;48.584;13.460;2023-02-27T09:51:57;97455.41;;;-2.30;78.68
45731;BME280;31440;48.584;13.460;2023-02-27T09:55:12;97443.97;;;-2.09;78.23
45731;BME280;31440;48.584;13.460;2023-02-27T09:58:54;97461.47;;;-2.25;77.65
45731;BME280;31440;48.584;13.460;2023-02-27T10:02:18;97476.31;;;-2.06;81.70
45731;BME280;31440;48.584;13.460;2023-02-27T10:05:37;97467.59;;;-1.74;78.06
45731;BME280;31440;48.584;13.460;2023-02-27T10:12:21;97472.03;;;-1.17;71.27
45731;BME280;31440;48.584;13.460;2023-02-27T10:15:33;97473.84;;;-0.55;70.43
45731;BME280;31440;48.584;13.460;2023-02-27T10:19:05;97475.25;;;-0.74;63.58
45731;BME280;31440;48.584;13.460;2023-02-27T10:25:17;97474.28;;;-0.27;63.94
45731;BME280;31440;48.584;13.460;2023-02-27T10:28:34;97483.28;;;-0.51;66.17
45731;BME280;31440;48.584;13.460;2023-02-27T10:31:40;97473.94;;;-0.49;64.12
45731;BME280;31440;48.584;13.460;2023-02-27T10:35:16;97465.06;;;-0.73;66.04
45731;BME280;31440;48.584;13.460;2023-02-27T10:41:34;97466.28;;;-1.04;70.18
45731;BME280;31440;48.584;13.460;2023-02-27T10:44:39;97464.84;;;-1.39;68.88
45731;BME280;31440;48.584;13.460;2023-02-27T10:50:49;97461.16;;;-1.05;67.68
45731;BME280;31440;48.584;13.460;2023-02-27T10:54:21;97469.00;;;-0.94;70.46
45731;BME280;31440;48.584;13.460;2023-02-27T10:57:35;97474.72;;;-1.11;68.76
45731;BME280;31440;48.584;13.460;2023-02-27T11:01:05;97464.97;;;-1.32;70.06
45731;BME280;31440;48.584;13.460;2023-02-27T11:04:11;97471.09;;;-0.69;65.04
45731;BME280;31440;48.584;13.460;2023-02-27T11:10:26;97461.34;;;-0.94;64.24
45731;BME280;31440;48.584;13.460;2023-02-27T11:13:40;97460.88;;;-0.69;67.03
45731;BME280;31440;48.584;13.460;2023-02-27T11:17:08;97457.16;;;-0.89;66.81
45731;BME280;31440;48.584;13.460;2023-02-27T11:23:33;97440.59;;;-0.60;66.11
45731;BME280;31440;48.584;13.460;2023-02-27T11:26:39;97450.63;;;-0.72;62.07
45731;BME280;31440;48.584;13.460;2023-02-27T11:30:21;97464.38;;;0.01;59.30
45731;BME280;31440;48.584;13.460;2023-02-27T11:33:28;97454.72;;;-0.23;59.90
45731;BME280;31440;48.584;13.460;2023-02-27T11:36:40;97457.78;;;0.18;59.85
45731;BME280;31440;48.584;13.460;2023-02-27T11:39:50;97449.63;;;-0.20;60.97
45731;BME280;31440;48.584;13.460;2023-02-27T11:43:01;97425.72;;;-0.27;57.87
45731;BME280;31440;48.584;13.460;2023-02-27T11:46:09;97445.34;;;0.49;61.07
45731;BME280;31440;48.584;13.460;2023-02-27T11:49:56;97426.03;;;0.01;56.63
45731;BME280;31440;48.584;13.460;2023-02-27T11:56:48;97427.50;;;-0.19;57.34
45731;BME280;31440;48.584;13.460;2023-02-27T12:00:32;97411.91;;;0.30;58.34
45731;BME280;31440;48.584;13.460;2023-02-27T12:03:47;97415.09;;;1.02;56.05
45731;BME280;31440;48.584;13.460;2023-02-27T12:07:47;97408.63;;;0.45;57.48
45731;BME280;31440;48.584;13.460;2023-02-27T12:13:46;97406.53;;;0.07;57.54
45731;BME280;31440;48.584;13.460;2023-02-27T12:16:57;97408.38;;;0.21;58.47
45731;BME280;31440;48.584;13.460;2023-02-27T12:26:35;97397.09;;;0.03;61.08
45731;BME280;31440;48.584;13.460;2023-02-27T12:29:48;97401.03;;;-0.26;60.64
45731;BME280;31440;48.584;13.460;2023-02-27T12:33:26;97397.41;;;0.32;62.19
45731;BME280;31440;48.584;13.460;2023-02-27T12:36:35;97395.53;;;0.16;60.74
45731;BME280;31440;48.584;13.460;2023-02-27T12:39:42;97405.13;;;-0.37;59.87
45731;BME280;31440;48.584;13.460;2023-02-27T12:43:00;97392.25;;;-0.46;59.42
45731;BME280;31440;48.584;13.460;2023-02-27T12:49:40;97411.56;;;-0.65;61.42
45731;BME280;31440;48.584;13.460;2023-02-27T13:00:21;97406.22;;;-0.18;61.87
45731;BME280;31440;48.584;13.460;2023-02-27T13:03:39;97400.91;;;-0.34;60.58
45731;BME280;31440;48.584;13.460;2023-02-27T13:09:58;97396.28;;;-0.64;58.76
45731;BME280;31440;48.584;13.460;2023-02-27T13:16:36;97408.25;;;0.10;58.10
45731;BME280;31440;48.584;13.460;2023-02-27T13:19:49;97408.84;;;-0.12;57.90
45731;BME280;31440;48.584;13.460;2023-02-27T13:23:17;97400.50;;;0.04;56.48
45731;BME280;31440;48.584;13.460;2023-02-27T13:26:35;97404.03;;;0.15;55.65
45731;BME280;31440;48.584;13.460;2023-02-27T13:29:55;97398.16;;;0.22;55.65
45731;BME280;31440;48.584;13.460;2023-02-27T13:36:39;97403.09;;;0.05;57.11
45731;BME280;31440;48.584;13.460;2023-02-27T13:42:58;97397.88;;;-0.05;57.90
45731;BME280;31440;48.584;13.460;2023-02-27T13:49:41;97411.28;;;-0.23;58.65
45731;BME280;31440;48.584;13.460;2023-02-27T13:55:55;97405.69;;;0.10;58.93
45731;BME280;31440;48.584;13.460;2023-02-27T13:59:26;97411.94;;;-0.36;62.52
45731;BME280;31440;48.584;13.460;2023-02-27T14:02:37;97410.56;;;-0.11;58.54
45731;BME280;31440;48.584;13.460;2023-02-27T14:05:59;97416.41;;;-0.21;59.40
45731;BME280;31440;48.584;13.460;2023-02-27T14:09:09;97410.53;;;-0.13;59.65
45731;BME280;31440;48.584;13.460;2023-02-27T14:12:34;97409.13;;;-0.57;61.63
45731;BME280;31440;48.584;13.460;2023-02-27T14:15:53;97410.41;;;-0.87;63.02
45731;BME280;31440;48.584;13.460;2023-02-27T14:19:00;97415.94;;;-0.58;66.35
45731;BME280;31440;48.584;13.460;2023-02-27T14:28:54;97421.81;;;-0.64;64.61
45731;BME280;31440;48.584;13.460;2023-02-27T14:32:04;97417.28;;;-0.81;62.27
45731;BME280;31440;48.584;13.460;2023-02-27T14:35:14;97423.94;;;-0.91;64.28
45731;BME280;31440;48.584;13.460;2023-02-27T14:38:19;97424.03;;;-0.86;63.97
45731;BME280;31440;48.584;13.460;2023-02-27T14:41:42;97418.81;;;-0.94;64.55
45731;BME280;31440;48.584;13.460;2023-02-27T14:44:52;97423.09;;;-0.93;64.83
45731;BME280;31440;48.584;13.460;2023-02-27T14:47:57;97424.53;;;-0.51;64.71
45731;BME280;31440;48.584;13.460;2023-02-27T14:51:02;97423.66;;;-1.11;61.40
45731;BME280;31440;48.584;13.460;2023-02-27T14:54:19;97422.97;;;-0.42;62.18
45731;BME280;31440;48.584;13.460;2023-02-27T14:57:24;97430.19;;;-0.72;61.11
45731;BME280;31440;48.584;13.460;2023-02-27T15:00:41;97433.34;;;-0.88;62.58
45731;BME280;31440;48.584;13.460;2023-02-27T15:03:49;97428.41;;;-0.78;59.93
45731;BME280;31440;48.584;13.460;2023-02-27T15:06:57;97434.47;;;-1.24;59.75
45731;BME280;31440;48.584;13.460;2023-02-27T15:10:05;97434.56;;;-1.19;59.41
45731;BME280;31440;48.584;13.460;2023-02-27T15:13:24;97442.22;;;-1.19;58.16
45731;BME280;31440;48.584;13.460;2023-02-27T15:19:45;97423.34;;;-1.31;58.52
45731;BME280;31440;48.584;13.460;2023-02-27T15:22:50;97454.28;;;-1.11;57.03
45731;BME280;31440;48.584;13.460;2023-02-27T15:25:57;97445.16;;;-1.48;57.34
45731;BME280;31440;48.584;13.460;2023-02-27T15:29:03;97440.13;;;-0.90;57.77
45731;BME280;31440;48.584;13.460;2023-02-27T15:32:35;97448.44;;;-1.04;57.41
45731;BME280;31440;48.584;13.460;2023-02-27T15:35:43;97432.94;;;-1.14;58.96
45731;BME280;31440;48.584;13.460;2023-02-27T15:39:07;97444.97;;;-1.57;57.65
45731;BME280;31440;48.584;13.460;2023-02-27T15:42:23;97445.75;;;-1.13;56.25
45731;BME280;31440;48.584;13.460;2023-02-27T15:45:32;97457.69;;;-1.09;58.85
45731;BME280;31440;48.584;13.460;2023-02-27T15:48:38;97454.94;;;-1.21;56.36
45731;BME280;31440;48.584;13.460;2023-02-27T15:51:45;97457.59;;;-1.63;56.81
45731;BME280;31440;48.584;13.460;2023-02-27T15:55:01;97462.09;;;-1.50;57.92
45731;BME280;31440;48.584;13.460;2023-02-27T15:58:37;97463.19;;;-1.37;56.71
45731;BME280;31440;48.584;13.460;2023-02-27T16:01:40;97465.88;;;-1.29;55.50
45731;BME280;31440;48.584;13.460;2023-02-27T16:04:45;97474.97;;;-1.42;59.45
45731;BME280;31440;48.584;13.460;2023-02-27T16:10:56;97480.84;;;-1.48;56.06
45731;BME280;31440;48.584;13.460;2023-02-27T16:14:02;97468.69;;;-1.61;56.34
45731;BME280;31440;48.584;13.460;2023-02-27T16:17:30;97487.56;;;-1.53;58.24
45731;BME280;31440;48.584;13.460;2023-02-27T16:20:48;97488.41;;;-1.52;58.13
45731;BME280;31440;48.584;13.460;2023-02-27T16:24:19;97491.31;;;-1.33;57.98
45731;BME280;31440;48.584;13.460;2023-02-27T16:30:30;97501.97;;;-1.97;58.98
45731;BME280;31440;48.584;13.460;2023-02-27T16:33:35;97498.47;;;-1.60;61.80
45731;BME280;31440;48.584;13.460;2023-02-27T16:36:50;97501.53;;;-1.76;60.84
45731;BME280;31440;48.584;13.460;2023-02-27T16:39:55;97514.78;;;-1.94;62.09
45731;BME280;31440;48.584;13.460;2023-02-27T16:43:01;97472.72;;;-2.14;59.84
45731;BME280;31440;48.584;13.460;2023-02-27T16:46:05;97520.81;;;-1.90;60.91
45731;BME280;31440;48.584;13.460;2023-02-27T16:49:20;97514.88;;;-1.46;59.89
45731;BME280;31440;48.584;13.460;2023-02-27T16:52:25;97525.63;;;-1.62;61.51
45731;BME280;31440;48.584;13.460;2023-02-27T16:55:31;97533.84;;;-1.75;60.83
45731;BME280;31440;48.584;13.460;2023-02-27T16:58:37;97528.00;;;-2.12;64.39
45731;BME280;31440;48.584;13.460;2023-02-27T17:01:45;97501.06;;;-1.99;62.33
45731;BME280;31440;48.584;13.460;2023-02-27T17:04:50;97532.44;;;-2.03;62.49
45731;BME280;31440;48.584;13.460;2023-02-27T17:07:55;97536.28;;;-1.83;63.08
45731;BME280;31440;48.584;13.460;2023-02-27T17:11:00;97533.91;;;-1.74;63.06
45731;BME280;31440;48.584;13.460;2023-02-27T17:14:05;97512.94;;;-2.01;64.18
45731;BME280;31440;48.584;13.460;2023-02-27T17:17:09;97535.69;;;-1.70;66.23
45731;BME280;31440;48.584;13.460;2023-02-27T17:20:16;97512.09;;;-2.02;63.18
45731;BME280;31440;48.584;13.460;2023-02-27T17:23:21;97530.69;;;-2.06;64.10
45731;BME280;31440;48.584;13.460;2023-02-27T17:26:26;97540.91;;;-2.04;65.33
45731;BME280;31440;48.584;13.460;2023-02-27T17:29:32;97519.25;;;-2.24;65.63
45731;BME280;31440;48.584;13.460;2023-02-27T17:32:36;97544.34;;;-2.02;69.38
45731;BME280;31440;48.584;13.460;2023-02-27T17:35:41;97532.56;;;-1.97;65.60
45731;BME280;31440;48.584;13.460;2023-02-27T17:38:45;97547.00;;;-1.96;71.53
45731;BME280;31440;48.584;13.460;2023-02-27T17:41:52;97544.59;;;-1.90;66.87
45731;BME280;31440;48.584;13.460;2023-02-27T17:44:57;97545.28;;;-1.97;70.31
45731;BME280;31440;48.584;13.460;2023-02-27T17:48:02;97550.28;;;-2.03;69.34
45731;BME280;31440;48.584;13.460;2023-02-27T17:51:10;97553.44;;;-2.13;69.45
45731;BME280;31440;48.584;13.460;2023-02-27T17:54:15;97570.91;;;-2.30;73.51
45731;BME280;31440;48.584;13.460;2023-02-27T17:57:19;97558.16;;;-1.92;70.61
45731;BME280;31440;48.584;13.460;2023-02-27T18:00:24;97560.28;;;-2.11;70.97
45731;BME280;31440;48.584;13.460;2023-02-27T18:03:28;97532.28;;;-2.48;73.38
45731;BME280;31440;48.584;13.460;2023-02-27T18:06:33;97583.19;;;-2.12;73.25
45731;BME280;31440;48.584;13.460;2023-02-27T18:09:38;97577.94;;;-2.20;71.50
45731;BME280;31440;48.584;13.460;2023-02-27T18:12:42;97580.38;;;-1.87;71.79
45731;BME280;31440;48.584;13.460;2023-02-27T18:15:48;97580.44;;;-1.84;73.11
45731;BME280;31440;48.584;13.460;2023-02-27T18:18:53;97556.84;;;-2.13;73.18
45731;BME280;31440;48.584;13.460;2023-02-27T18:21:58;97571.56;;;-2.00;75.51
45731;BME280;31440;48.584;13.460;2023-02-27T18:25:02;97585.94;;;-2.05;74.26
45731;BME280;31440;48.584;13.460;2023-02-27T18:28:07;97583.38;;;-2.05;78.07
45731;BME280;31440;48.584;13.460;2023-02-27T18:31:30;97576.19;;;-2.22;76.28
45731;BME280;31440;48.584;13.460;2023-02-27T18:34:35;97579.56;;;-2.23;80.74
45731;BME280;31440;48.584;13.460;2023-02-27T18:37:39;97575.13;;;-2.30;77.79
45731;BME280;31440;48.584;13.460;2023-02-27T18:40:45;97507.56;;;-2.54;79.04
45731;BME280;31440;48.584;13.460;2023-02-27T18:43:49;97570.22;;;-2.23;76.83
45731;BME280;31440;48.584;13.460;2023-02-27T18:46:54;97572.03;;;-2.55;77.37
45731;BME280;31440;48.584;13.460;2023-02-27T18:49:59;97573.94;;;-2.09;74.51
45731;BME280;31440;48.584;13.460;2023-02-27T18:53:03;97568.69;;;-2.15;76.33
45731;BME280;31440;48.584;13.460;2023-02-27T18:56:12;97580.69;;;-2.47;77.07
45731;BME280;31440;48.584;13.460;2023-02-27T18:59:17;97582.09;;;-2.23;77.00
45731;BME280;31440;48.584;13.460;2023-02-27T19:02:21;97570.56;;;-2.45;78.29
45731;BME280;31440;48.584;13.460;2023-02-27T19:05:26;97586.16;;;-2.31;74.18
45731;BME280;31440;48.584;13.460;2023-02-27T19:08:30;97587.28;;;-2.20;75.10
45731;BME280;31440;48.584;13.460;2023-02-27T19:11:35;97592.63;;;-2.08;71.52
45731;BME280;31440;48.584;13.460;2023-02-27T19:14:40;97594.34;;;-2.07;73.27